createdAt,value
2018-04-27T00:00:03.979Z,6.70
2018-04-27T00:02:32.257Z,6.80
2018-04-27T00:05:00.529Z,6.80
2018-04-27T00:07:28.773Z,6.80
2018-04-27T00:09:57.023Z,6.90
2018-04-27T00:12:26.051Z,6.90
2018-04-27T00:14:54.312Z,6.80
2018-04-27T00:17:22.560Z,6.90
2018-04-27T00:19:50.939Z,6.90
2018-04-27T00:22:19.171Z,6.70
2018-04-27T00:24:47.420Z,6.70
2018-04-27T00:27:16.438Z,6.60
2018-04-27T00:29:44.703Z,6.60
2018-04-27T00:32:12.965Z,6.60
2018-04-27T00:34:41.972Z,6.80
2018-04-27T00:37:10.212Z,6.70
2018-04-27T00:39:38.467Z,6.80
2018-04-27T00:42:06.740Z,6.70
2018-04-27T00:44:34.964Z,6.70
2018-04-27T00:47:03.970Z,6.50
2018-04-27T00:49:32.242Z,6.50
2018-04-27T00:52:01.255Z,6.40
2018-04-27T00:54:29.523Z,6.40
2018-04-27T00:56:57.758Z,6.30
2018-04-27T00:59:26.012Z,6.30
2018-04-27T01:01:54.224Z,6.40
2018-04-27T01:04:22.476Z,6.40
2018-04-27T01:06:50.729Z,6.50
2018-04-27T01:09:18.995Z,6.50
2018-04-27T01:11:47.257Z,6.50
2018-04-27T01:14:16.313Z,6.60
2018-04-27T01:16:45.390Z,6.60
2018-04-27T01:19:13.638Z,6.60
2018-04-27T01:21:41.908Z,6.50
2018-04-27T01:24:10.947Z,6.50
2018-04-27T01:26:39.197Z,6.40
2018-04-27T01:29:07.440Z,6.50
2018-04-27T01:31:36.492Z,6.40
2018-04-27T01:34:04.704Z,6.40
2018-04-27T01:36:32.935Z,6.40
2018-04-27T01:39:01.185Z,6.40
2018-04-27T01:41:29.424Z,6.40
2018-04-27T01:43:57.660Z,6.50
2018-04-27T01:46:25.933Z,6.40
2018-04-27T01:48:54.155Z,6.50
2018-04-27T01:51:22.412Z,6.40
2018-04-27T01:53:50.661Z,6.40
2018-04-27T01:56:18.959Z,6.40
2018-04-27T01:58:47.219Z,6.40
2018-04-27T02:01:15.463Z,6.40
2018-04-27T02:03:44.481Z,6.30
2018-04-27T02:06:12.728Z,6.30
2018-04-27T02:08:41.751Z,6.30
2018-04-27T02:11:10.600Z,6.30
2018-04-27T02:13:38.876Z,6.30
2018-04-27T02:16:07.146Z,6.20
2018-04-27T02:18:35.442Z,6.20
2018-04-27T02:21:03.692Z,6.20
2018-04-27T02:23:31.966Z,6.20
2018-04-27T02:26:00.222Z,6.20
2018-04-27T02:28:28.468Z,6.20
2018-04-27T02:30:57.289Z,6.30
2018-04-27T02:33:25.618Z,6.20
2018-04-27T02:35:53.860Z,6.20
2018-04-27T02:38:22.093Z,6.20
2018-04-27T02:40:50.381Z,6.20
2018-04-27T02:43:20.149Z,6.00
2018-04-27T02:45:48.418Z,6.00
2018-04-27T02:48:16.649Z,5.90
2018-04-27T02:50:44.897Z,5.90
2018-04-27T02:53:13.899Z,5.90
2018-04-27T02:55:42.957Z,5.90
2018-04-27T02:58:11.170Z,5.90
2018-04-27T03:00:40.191Z,5.90
2018-04-27T03:03:08.433Z,5.90
2018-04-27T03:05:37.484Z,5.90
2018-04-27T03:08:05.713Z,5.90
2018-04-27T03:10:34.737Z,5.90
2018-04-27T03:13:03.746Z,5.90
2018-04-27T03:15:31.989Z,5.90
2018-04-27T03:18:00.987Z,6.00
2018-04-27T03:20:29.279Z,5.90
2018-04-27T03:22:57.519Z,6.00
2018-04-27T03:25:25.780Z,6.00
2018-04-27T03:27:54.023Z,6.00
2018-04-27T03:30:22.274Z,6.10
2018-04-27T03:32:51.271Z,6.00
2018-04-27T03:35:19.505Z,6.00
2018-04-27T03:37:47.780Z,6.00
2018-04-27T03:40:15.997Z,6.00
2018-04-27T03:42:44.254Z,6.00
2018-04-27T03:45:13.257Z,6.00
2018-04-27T03:47:42.265Z,6.00
2018-04-27T03:50:11.329Z,6.00
2018-04-27T03:52:39.579Z,6.00
2018-04-27T03:55:07.849Z,6.00
2018-04-27T03:57:36.103Z,6.10
2018-04-27T04:00:16.366Z,6.10
2018-04-27T04:02:56.613Z,6.10
2018-04-27T04:05:32.005Z,6.10
2018-04-27T04:08:00.277Z,6.10
2018-04-27T04:10:28.503Z,6.10
2018-04-27T04:12:56.780Z,6.10
2018-04-27T04:15:25.799Z,6.20
2018-04-27T04:17:54.093Z,6.10
2018-04-27T04:20:22.343Z,6.10
2018-04-27T04:22:51.376Z,6.10
2018-04-27T04:25:19.603Z,6.10
2018-04-27T04:27:47.891Z,6.10
2018-04-27T04:30:16.132Z,6.10
2018-04-27T04:32:44.509Z,6.20
2018-04-27T04:35:12.749Z,6.10
2018-04-27T04:37:41.037Z,6.10
2018-04-27T04:40:09.274Z,6.20
2018-04-27T04:42:37.527Z,6.20
2018-04-27T04:45:06.611Z,6.30
2018-04-27T04:47:34.824Z,6.30
2018-04-27T04:50:03.103Z,6.30
2018-04-27T04:52:31.473Z,6.40
2018-04-27T04:54:59.679Z,6.40
2018-04-27T04:57:27.951Z,6.50
2018-04-27T04:59:56.196Z,6.50
2018-04-27T05:02:24.472Z,6.60
2018-04-27T05:04:52.711Z,6.50
2018-04-27T05:07:20.998Z,6.60
2018-04-27T05:09:49.233Z,6.70
2018-04-27T05:12:17.553Z,6.60
2018-04-27T05:14:45.816Z,6.50
2018-04-27T05:17:14.072Z,6.50
2018-04-27T05:19:42.313Z,6.60
2018-04-27T05:22:11.345Z,6.90
2018-04-27T05:24:39.620Z,6.90
2018-04-27T05:27:07.869Z,7.00
2018-04-27T05:29:36.882Z,7.20
2018-04-27T05:32:05.175Z,7.20
2018-04-27T05:34:33.484Z,7.30
2018-04-27T05:37:01.766Z,7.40
2018-04-27T05:39:30.000Z,7.50
2018-04-27T05:41:58.287Z,7.70
2018-04-27T05:44:26.634Z,7.80
2018-04-27T05:46:54.888Z,8.10
2018-04-27T05:49:23.959Z,8.30
2018-04-27T05:51:53.071Z,8.40
2018-04-27T05:54:21.350Z,8.40
2018-04-27T05:56:49.605Z,8.60
2018-04-27T05:59:17.886Z,8.60
2018-04-27T06:01:46.117Z,8.70
2018-04-27T06:04:15.000Z,8.70
2018-04-27T06:06:44.022Z,8.80
2018-04-27T06:09:13.039Z,8.70
2018-04-27T06:11:41.290Z,8.70
2018-04-27T06:14:09.626Z,8.70
2018-04-27T06:16:37.857Z,8.70
2018-04-27T06:19:06.165Z,8.60
2018-04-27T06:21:34.393Z,8.60
2018-04-27T06:24:02.675Z,8.60
2018-04-27T06:26:30.917Z,8.80
2018-04-27T06:28:59.970Z,8.80
2018-04-27T06:31:28.197Z,8.90
2018-04-27T06:33:57.207Z,8.90
2018-04-27T06:36:25.490Z,8.90
2018-04-27T06:38:53.736Z,8.90
2018-04-27T06:41:21.983Z,9.00
2018-04-27T06:43:50.233Z,9.00
2018-04-27T06:46:18.500Z,9.10
2018-04-27T06:48:46.810Z,9.20
2018-04-27T06:51:15.067Z,9.30
2018-04-27T06:53:43.343Z,9.30
2018-04-27T06:56:11.591Z,9.50
2018-04-27T06:58:40.620Z,9.70
2018-04-27T07:01:08.875Z,9.60
2018-04-27T07:03:37.383Z,9.70
2018-04-27T07:06:05.671Z,9.80
2018-04-27T07:08:33.941Z,9.90
2018-04-27T07:11:02.291Z,10.10
2018-04-27T07:13:31.353Z,10.40
2018-04-27T07:16:00.415Z,10.60
2018-04-27T07:18:28.698Z,10.60
2018-04-27T07:20:56.953Z,10.70
2018-04-27T07:23:25.208Z,10.90
2018-04-27T07:25:54.311Z,11.20
2018-04-27T07:28:23.310Z,11.20
2018-04-27T07:30:51.616Z,11.10
2018-04-27T07:33:19.895Z,11.30
2018-04-27T07:35:48.137Z,11.30
2018-04-27T07:38:16.388Z,11.50
2018-04-27T07:40:44.651Z,11.60
2018-04-27T07:43:13.816Z,11.70
2018-04-27T07:45:42.075Z,11.80
2018-04-27T07:48:10.322Z,11.90
2018-04-27T07:50:39.385Z,12.20
2018-04-27T07:53:07.706Z,12.10
2018-04-27T07:55:35.943Z,12.30
2018-04-27T07:58:05.012Z,12.60
2018-04-27T08:00:33.318Z,12.50
2018-04-27T08:03:01.569Z,12.60
2018-04-27T08:05:29.845Z,12.80
2018-04-27T08:07:58.115Z,13.00
2018-04-27T08:10:27.220Z,13.30
2018-04-27T08:12:55.465Z,13.30
2018-04-27T08:15:23.775Z,13.50
2018-04-27T08:17:52.041Z,13.50
2018-04-27T08:20:29.968Z,13.70
2018-04-27T08:23:00.026Z,13.90
2018-04-27T08:25:32.972Z,14.00
2018-04-27T08:28:01.262Z,14.00
2018-04-27T08:30:29.580Z,14.00
2018-04-27T08:32:57.868Z,14.10
2018-04-27T08:35:26.920Z,14.20
2018-04-27T08:37:55.175Z,14.20
2018-04-27T08:40:23.431Z,14.30
2018-04-27T08:42:52.240Z,14.50
2018-04-27T08:45:20.488Z,14.60
2018-04-27T08:47:49.505Z,14.80
2018-04-27T08:50:17.948Z,14.80
2018-04-27T08:52:46.885Z,15.10
2018-04-27T08:55:15.197Z,15.00
2018-04-27T08:57:43.439Z,15.00
2018-04-27T09:00:11.726Z,15.00
2018-04-27T09:02:40.149Z,15.10
2018-04-27T09:05:09.110Z,15.30
2018-04-27T09:07:37.356Z,15.20
2018-04-27T09:10:05.603Z,15.30
2018-04-27T09:12:33.931Z,15.30
2018-04-27T09:15:02.220Z,15.20
2018-04-27T09:17:30.509Z,15.40
2018-04-27T09:19:58.778Z,15.50
2018-04-27T09:22:27.089Z,15.50
2018-04-27T09:24:56.288Z,15.70
2018-04-27T09:27:25.325Z,15.90
2018-04-27T09:29:53.587Z,15.90
2018-04-27T09:32:22.655Z,16.00
2018-04-27T09:34:50.849Z,16.00
2018-04-27T09:37:19.873Z,16.40
2018-04-27T09:39:48.122Z,16.40
2018-04-27T09:42:17.175Z,16.40
2018-04-27T09:44:45.635Z,16.40
2018-04-27T09:47:13.921Z,16.40
2018-04-27T09:49:42.199Z,16.70
2018-04-27T09:52:10.512Z,16.70
2018-04-27T09:54:38.728Z,16.60
2018-04-27T09:57:07.025Z,16.60
2018-04-27T09:59:35.279Z,16.70
2018-04-27T10:02:03.556Z,16.90
2018-04-27T10:04:31.824Z,16.70
2018-04-27T10:07:00.929Z,16.90
2018-04-27T10:09:29.241Z,16.80
2018-04-27T10:11:57.550Z,16.70
2018-04-27T10:14:26.244Z,16.70
2018-04-27T10:16:54.499Z,16.70
2018-04-27T10:19:22.757Z,16.90
2018-04-27T10:21:51.047Z,16.90
2018-04-27T10:29:18.433Z,17.20
2018-04-27T10:31:47.360Z,17.20
2018-04-27T10:34:15.589Z,17.30
2018-04-27T10:36:43.920Z,17.30
2018-04-27T10:39:12.929Z,17.30
2018-04-27T10:41:41.960Z,17.20
2018-04-27T10:44:10.549Z,17.20
2018-04-27T10:46:38.832Z,17.10
2018-04-27T10:49:07.108Z,17.20
2018-04-27T10:51:35.463Z,17.30
2018-04-27T10:54:04.500Z,17.60
2018-04-27T10:56:32.746Z,17.60
2018-04-27T10:59:01.799Z,17.80
2018-04-27T11:01:31.491Z,17.80
2018-04-27T11:04:00.410Z,17.70
2018-04-27T11:06:28.747Z,17.60
2018-04-27T11:08:57.056Z,16.80
2018-04-27T11:11:26.732Z,16.70
2018-04-27T11:13:55.885Z,16.70
2018-04-27T11:16:24.166Z,17.00
2018-04-27T11:18:53.209Z,17.50
2018-04-27T11:21:22.268Z,17.50
2018-04-27T11:23:50.608Z,17.50
2018-04-27T11:26:19.683Z,18.00
2018-04-27T11:28:49.543Z,18.00
2018-04-27T11:31:18.578Z,18.10
2018-04-27T11:34:00.131Z,18.10
2018-04-27T11:36:29.757Z,18.20
2018-04-27T11:38:58.124Z,18.10
2018-04-27T11:41:27.145Z,18.20
2018-04-27T11:43:56.476Z,18.20
2018-04-27T11:46:24.842Z,18.40
2018-04-27T11:48:53.131Z,18.40
2018-04-27T11:51:21.811Z,18.30
2018-04-27T11:53:51.973Z,18.10
2018-04-27T11:56:21.012Z,18.00
2018-04-27T11:58:49.681Z,18.00
2018-04-27T12:01:17.970Z,18.00
2018-04-27T12:03:46.356Z,18.10
2018-04-27T12:06:14.624Z,18.10
2018-04-27T12:08:42.912Z,18.10
2018-04-27T12:11:11.234Z,18.30
2018-04-27T12:13:39.481Z,18.30
2018-04-27T12:16:07.811Z,18.20
2018-04-27T12:18:36.117Z,18.10
2018-04-27T12:21:04.388Z,18.30
2018-04-27T12:23:32.807Z,18.00
2018-04-27T12:26:02.247Z,18.00
2018-04-27T12:28:30.593Z,18.00
2018-04-27T12:30:59.069Z,18.00
2018-04-27T12:33:27.349Z,18.00
2018-04-27T12:35:55.745Z,18.00
2018-04-27T12:38:24.000Z,18.00
2018-04-27T12:40:52.271Z,18.10
2018-04-27T12:43:20.551Z,18.20
2018-04-27T12:45:48.841Z,18.40
2018-04-27T12:48:17.144Z,18.60
2018-04-27T12:50:45.440Z,18.50
2018-04-27T12:53:13.746Z,18.40
2018-04-27T12:55:42.020Z,18.30
2018-04-27T12:58:12.327Z,18.40
2018-04-27T13:00:40.660Z,18.30
2018-04-27T13:03:09.752Z,18.10
2018-04-27T13:05:38.042Z,18.00
2018-04-27T13:08:06.653Z,18.00
2018-04-27T13:10:34.944Z,17.80
2018-04-27T13:13:03.916Z,17.90
2018-04-27T13:15:33.827Z,17.80
2018-04-27T13:18:04.616Z,17.80
2018-04-27T13:20:32.906Z,17.80
2018-04-27T13:23:01.264Z,17.90
2018-04-27T13:25:29.542Z,18.10
2018-04-27T13:27:57.799Z,18.20
2018-04-27T13:30:26.873Z,17.90
2018-04-27T13:32:57.311Z,18.00
2018-04-27T13:35:25.596Z,18.00
2018-04-27T13:37:55.458Z,18.00
2018-04-27T13:40:24.594Z,18.00
2018-04-27T13:42:54.545Z,18.10
2018-04-27T13:45:22.896Z,18.10
2018-04-27T13:47:52.132Z,18.20
2018-04-27T13:50:20.432Z,18.20
2018-04-27T13:52:49.451Z,18.20
2018-04-27T13:55:17.924Z,18.10
2018-04-27T13:57:46.212Z,18.00
2018-04-27T14:00:15.239Z,17.90
2018-04-27T14:02:44.734Z,18.00
2018-04-27T14:05:13.044Z,18.00
2018-04-27T14:07:42.063Z,18.10
2018-04-27T14:10:10.404Z,18.10
2018-04-27T14:12:39.086Z,18.00
2018-04-27T14:15:10.073Z,17.90
2018-04-27T14:17:39.614Z,17.80
2018-04-27T14:20:08.672Z,17.90
2018-04-27T14:22:36.987Z,17.90
2018-04-27T14:25:05.256Z,17.90
2018-04-27T14:27:33.548Z,18.00
2018-04-27T14:30:02.591Z,18.00
2018-04-27T14:32:30.831Z,18.00
2018-04-27T14:35:00.861Z,18.20
2018-04-27T14:37:29.980Z,18.20
2018-04-27T14:39:58.625Z,18.20
2018-04-27T14:42:26.891Z,18.30
2018-04-27T14:44:55.370Z,18.20
2018-04-27T14:47:23.622Z,18.30
2018-04-27T14:49:51.904Z,18.10
2018-04-27T14:52:20.222Z,18.20
2018-04-27T14:54:49.303Z,18.30
2018-04-27T14:57:17.717Z,18.30
2018-04-27T14:59:46.019Z,18.30
2018-04-27T15:02:14.285Z,18.30
2018-04-27T15:04:42.605Z,18.20
2018-04-27T15:07:10.921Z,18.20
2018-04-27T15:09:39.984Z,18.20
2018-04-27T15:12:08.318Z,18.20
2018-04-27T15:14:38.304Z,18.20
2018-04-27T15:17:08.206Z,18.40
2018-04-27T15:19:36.480Z,18.30
2018-04-27T15:22:04.966Z,18.40
2018-04-27T15:24:33.873Z,18.40
2018-04-27T15:27:03.221Z,18.50
2018-04-27T15:29:31.528Z,18.50
2018-04-27T15:32:00.575Z,18.60
2018-04-27T15:34:28.949Z,18.60
2018-04-27T15:36:57.283Z,18.60
2018-04-27T15:39:25.589Z,18.60
2018-04-27T15:41:53.889Z,18.70
2018-04-27T15:44:22.245Z,18.80
2018-04-27T15:46:50.550Z,18.80
2018-04-27T15:49:18.859Z,18.80
2018-04-27T15:51:47.196Z,18.70
2018-04-27T15:54:15.450Z,18.70
2018-04-27T15:56:44.484Z,18.50
2018-04-27T15:59:12.729Z,18.50
2018-04-27T16:01:42.165Z,18.60
2018-04-27T16:04:10.499Z,18.40
2018-04-27T16:06:39.594Z,18.40
2018-04-27T16:09:07.959Z,18.40
2018-04-27T16:11:36.181Z,18.30
2018-04-27T16:14:04.480Z,18.30
2018-04-27T16:16:32.771Z,18.30
2018-04-27T16:19:02.647Z,18.50
2018-04-27T16:21:30.960Z,18.50
2018-04-27T16:24:00.345Z,18.50
2018-04-27T16:26:32.484Z,18.60
2018-04-27T16:29:00.767Z,18.60
2018-04-27T16:31:29.710Z,18.60
2018-04-27T16:33:58.766Z,18.60
2018-04-27T16:36:28.574Z,18.50
2018-04-27T16:38:57.645Z,18.50
2018-04-27T16:41:26.327Z,18.50
2018-04-27T16:43:54.587Z,18.50
2018-04-27T16:46:22.919Z,18.50
2018-04-27T16:48:51.967Z,18.40
2018-04-27T16:51:20.961Z,18.40
2018-04-27T16:53:49.236Z,18.40
2018-04-27T16:56:18.337Z,18.50
2018-04-27T16:58:47.020Z,18.50
2018-04-27T17:01:17.054Z,18.50
2018-04-27T17:03:45.484Z,18.50
2018-04-27T17:06:13.666Z,18.50
2018-04-27T17:08:42.043Z,18.50
2018-04-27T17:11:10.323Z,18.60
2018-04-27T17:13:38.612Z,18.60
2018-04-27T17:16:06.881Z,18.60
2018-04-27T17:18:35.214Z,18.60
2018-04-27T17:21:03.502Z,18.50
2018-04-27T17:23:31.854Z,18.50
2018-04-27T17:26:01.163Z,18.30
2018-04-27T17:28:29.603Z,18.30
2018-04-27T17:30:57.859Z,18.20
2018-04-27T17:33:26.217Z,18.10
2018-04-27T17:35:54.636Z,18.00
2018-04-27T17:38:23.021Z,17.90
2018-04-27T17:40:51.393Z,17.90
2018-04-27T17:43:19.854Z,17.90
2018-04-27T17:45:49.283Z,17.80
2018-04-27T17:48:17.529Z,17.70
2018-04-27T17:50:45.796Z,17.70
2018-04-27T17:53:15.294Z,17.60
2018-04-27T17:55:43.791Z,17.60
2018-04-27T17:58:12.037Z,17.50
2018-04-27T18:00:40.330Z,17.50
2018-04-27T18:03:08.642Z,17.40
2018-04-27T18:05:36.924Z,17.40
2018-04-27T18:08:05.577Z,17.40
2018-04-27T18:10:34.714Z,17.40
2018-04-27T18:13:02.973Z,17.40
2018-04-27T18:15:31.260Z,17.40
2018-04-27T18:18:00.370Z,17.30
2018-04-27T18:20:28.670Z,17.20
2018-04-27T18:22:57.131Z,17.10
2018-04-27T18:25:25.373Z,17.00
2018-04-27T18:27:54.551Z,16.90
2018-04-27T18:30:23.665Z,16.50
2018-04-27T18:32:52.742Z,16.40
2018-04-27T18:35:21.035Z,16.40
2018-04-27T18:37:49.404Z,16.20
2018-04-27T18:40:18.455Z,15.80
2018-04-27T18:42:46.757Z,15.80
2018-04-27T18:45:15.015Z,15.70
2018-04-27T18:47:43.327Z,15.50
2018-04-27T18:50:11.650Z,15.40
2018-04-27T18:52:41.321Z,15.40
2018-04-27T18:55:10.379Z,15.00
2018-04-27T18:57:39.747Z,15.00
2018-04-27T19:00:08.613Z,14.90
2018-04-27T19:02:37.922Z,14.70
2018-04-27T19:05:06.978Z,14.50
2018-04-27T19:07:35.545Z,14.40
2018-04-27T19:10:03.827Z,14.30
2018-04-27T19:12:32.184Z,14.30
2018-04-27T19:15:00.541Z,14.20
2018-04-27T19:17:28.903Z,13.90
2018-04-27T19:19:58.880Z,13.70
2018-04-27T19:22:27.660Z,13.60
2018-04-27T19:24:56.996Z,13.60
2018-04-27T19:27:25.410Z,13.60
2018-04-27T19:29:53.748Z,13.50
2018-04-27T19:32:22.038Z,13.30
2018-04-27T19:34:51.182Z,13.10
2018-04-27T19:37:20.236Z,13.00
2018-04-27T19:39:48.628Z,13.00
2018-04-27T19:42:17.687Z,12.80
2018-04-27T19:44:45.994Z,12.80
2018-04-27T19:47:14.347Z,12.80
2018-04-27T19:49:42.683Z,12.70
2018-04-27T19:52:11.211Z,12.70
2018-04-27T19:54:39.588Z,12.60
2018-04-27T19:57:08.082Z,12.60
2018-04-27T19:59:36.474Z,12.50
2018-04-27T20:02:04.875Z,12.40
2018-04-27T20:04:33.217Z,12.30
2018-04-27T20:07:01.648Z,12.10
2018-04-27T20:09:30.805Z,12.10
2018-04-27T20:11:59.197Z,12.10
2018-04-27T20:14:31.288Z,12.00
2018-04-27T20:17:04.244Z,11.90
2018-04-27T20:19:34.807Z,11.80
2018-04-27T20:22:22.831Z,11.70
2018-04-27T20:24:54.407Z,11.50
2018-04-27T20:27:26.877Z,11.50
2018-04-27T20:29:55.919Z,11.20
2018-04-27T20:32:24.240Z,11.20
2018-04-27T20:34:53.338Z,11.20
2018-04-27T20:37:22.422Z,11.10
2018-04-27T20:39:50.738Z,11.00
2018-04-27T20:42:19.769Z,11.10
2018-04-27T20:44:48.213Z,11.10
2018-04-27T20:47:17.296Z,11.10
2018-04-27T20:49:45.666Z,11.00
2018-04-27T20:52:14.058Z,11.00
2018-04-27T20:54:42.651Z,10.90
2018-04-27T20:57:10.965Z,10.90
2018-04-27T20:59:39.388Z,10.90
2018-04-27T21:02:07.697Z,10.80
2018-04-27T21:04:36.025Z,10.80
2018-04-27T21:07:04.313Z,10.70
2018-04-27T21:09:33.499Z,10.60
2018-04-27T21:12:01.776Z,10.50
2018-04-27T21:14:30.072Z,10.60
2018-04-27T21:16:59.118Z,10.50
2018-04-27T21:19:27.453Z,10.50
2018-04-27T21:21:59.443Z,10.50
2018-04-27T21:24:27.830Z,10.50
2018-04-27T21:26:56.115Z,10.40
2018-04-27T21:29:27.222Z,10.40
2018-04-27T21:31:55.485Z,10.40
2018-04-27T21:34:24.533Z,10.40
2018-04-27T21:36:52.830Z,10.40
2018-04-27T21:39:21.174Z,10.40
2018-04-27T21:41:56.941Z,10.40
2018-04-27T21:44:26.094Z,10.40
2018-04-27T21:50:12.239Z,10.30
2018-04-27T21:52:44.218Z,10.30
2018-04-27T21:55:12.518Z,10.40
2018-04-27T21:57:40.813Z,10.30
2018-04-27T22:00:19.531Z,10.30
2018-04-27T22:06:06.254Z,10.30
2018-04-27T22:08:39.512Z,10.30
2018-04-27T22:11:08.709Z,10.20
2018-04-27T22:13:37.023Z,10.10
2018-04-27T22:16:05.375Z,10.10
2018-04-27T22:18:35.193Z,10.30
2018-04-27T22:21:03.502Z,10.30
2018-04-27T22:23:36.915Z,10.30
2018-04-27T22:26:12.285Z,10.30
2018-04-27T22:28:49.379Z,10.20
2018-04-27T22:31:32.880Z,10.20
2018-04-27T22:34:01.981Z,10.10
2018-04-27T22:36:30.805Z,10.30
2018-04-27T22:39:07.807Z,10.30
2018-04-27T22:41:36.330Z,10.30
2018-04-27T22:44:07.469Z,10.30
2018-04-27T22:46:39.328Z,10.20
2018-04-27T22:49:08.469Z,10.20
2018-04-27T22:51:40.178Z,10.30
2018-04-27T22:54:10.162Z,10.30
2018-04-27T22:56:54.105Z,10.50
2018-04-27T22:59:28.314Z,10.50
2018-04-27T23:01:59.943Z,10.40
2018-04-27T23:04:28.188Z,10.50
2018-04-27T23:06:56.484Z,10.40
2018-04-27T23:09:24.765Z,10.30
2018-04-27T23:11:53.041Z,10.40
2018-04-27T23:14:35.113Z,10.40
2018-04-27T23:17:07.209Z,10.30
2018-04-27T23:19:37.801Z,10.10
2018-04-27T23:22:21.844Z,10.10
2018-04-27T23:24:50.090Z,10.10
2018-04-27T23:27:19.145Z,10.10
2018-04-27T23:29:47.493Z,10.10
2018-04-27T23:32:15.788Z,10.10
2018-04-27T23:34:44.072Z,10.10
2018-04-27T23:37:12.478Z,10.00
2018-04-27T23:39:40.720Z,10.00
2018-04-27T23:42:09.026Z,9.90
2018-04-27T23:44:37.303Z,9.90
2018-04-27T23:47:05.573Z,9.90
2018-04-27T23:49:33.860Z,9.80
2018-04-27T23:52:02.178Z,9.80
2018-04-27T23:54:30.460Z,9.70
2018-04-27T23:57:02.327Z,9.70
2018-04-27T23:59:34.578Z,9.70
